Time;durP1;ratioP1;P1;durP2;ratioP2;P2;SDS_P1;SDS_P2;PMS_P1;PMS_P2;Temp;Humidity;BMP_temperature;BMP_pressure;BME280_temperature;BME280_humidity;BME280_pressure;Samples;Min_cycle;Max_cycle;Signal;HPM_P1;HPM_P2
2023/05/18 00:01:55;;;;;;;3.07;1.80;;;;;;;;;;5036020;28;20211;-81
2023/05/18 00:04:24;;;;;;;2.57;1.93;;;;;;;;;;5032754;28;20206;-81
2023/05/18 00:06:55;;;;;;;7.97;2.73;;;;;;;;;;5049276;28;20205;-81
2023/05/18 00:09:23;;;;;;;3.27;2.10;;;;;;;;;;5050452;28;20212;-81
2023/05/18 00:11:50;;;;;;;2.33;2.13;;;;;;;;;;5048223;28;20629;-81
2023/05/18 00:14:17;;;;;;;2.90;2.17;;;;;;;;;;5039558;28;20294;-81
2023/05/18 00:16:44;;;;;;;3.73;2.53;;;;;;;;;;5047795;28;20206;-81
2023/05/18 00:19:13;;;;;;;2.77;2.40;;;;;;;;;;5049712;28;20604;-81
2023/05/18 00:21:42;;;;;;;4.37;2.80;;;;;;;;;;5049579;28;20213;-81
2023/05/18 00:24:09;;;;;;;2.63;2.43;;;;;;;;;;5048541;28;20202;-82
2023/05/18 00:26:37;;;;;;;6.17;2.40;;;;;;;;;;5049606;28;20288;-81
2023/05/18 00:29:04;;;;;;;2.40;2.20;;;;;;;;;;5038145;28;20218;-81
2023/05/18 00:31:34;;;;;;;3.63;2.13;;;;;;;;;;5035026;28;20195;-82
2023/05/18 00:34:02;;;;;;;2.57;2.37;;;;;;;;;;5050302;28;20202;-82
2023/05/18 00:36:30;;;;;;;3.50;3.20;;;;;;;;;;5049867;28;20282;-81
2023/05/18 00:38:58;;;;;;;3.80;2.93;;;;;;;;;;5049299;28;20233;-81
2023/05/18 00:41:26;;;;;;;2.67;2.47;;;;;;;;;;5024539;28;20201;-81
2023/05/18 00:43:53;;;;;;;3.57;3.27;;;;;;;;;;5035591;28;20721;-81
2023/05/18 00:46:20;;;;;;;6.07;3.50;;;;;;;;;;5049611;28;20226;-81
2023/05/18 00:48:47;;;;;;;4.40;3.50;;;;;;;;;;5036160;28;20207;-81
2023/05/18 00:51:14;;;;;;;3.27;2.53;;;;;;;;;;5041956;27;20211;-81
2023/05/18 00:53:41;;;;;;;4.37;2.60;;;;;;;;;;5043612;28;20210;-81
2023/05/18 00:56:11;;;;;;;3.27;3.00;;;;;;;;;;5040349;28;20673;-81
2023/05/18 00:58:38;;;;;;;2.50;2.30;;;;;;;;;;5044241;28;20206;-81
2023/05/18 01:01:05;;;;;;;2.47;2.30;;;;;;;;;;5049089;28;20206;-81
2023/05/18 01:03:33;;;;;;;3.17;2.93;;;;;;;;;;5049290;28;20205;-82
2023/05/18 01:06:00;;;;;;;3.63;3.17;;;;;;;;;;5049950;28;20209;-81
2023/05/18 01:08:27;;;;;;;3.03;2.83;;;;;;;;;;5049232;28;20209;-81
2023/05/18 01:10:57;;;;;;;4.60;2.63;;;;;;;;;;5049399;28;20202;-81
2023/05/18 01:13:42;;;;;;;2.40;2.17;;;;;;;;;;5046435;28;20221;-80
2023/05/18 01:16:11;;;;;;;2.50;2.30;;;;;;;;;;5029718;28;20289;-81
2023/05/18 01:18:46;;;;;;;3.70;2.20;;;;;;;;;;5049124;28;20209;-81
2023/05/18 01:21:19;;;;;;;5.97;3.03;;;;;;;;;;5047970;28;20284;-81
2023/05/18 01:23:56;;;;;;;2.63;2.47;;;;;;;;;;5037897;28;20206;-81
2023/05/18 01:26:28;;;;;;;2.87;2.67;;;;;;;;;;5034329;28;20959;-81
2023/05/18 01:28:56;;;;;;;5.07;3.87;;;;;;;;;;5049259;28;20232;-81
2023/05/18 01:31:23;;;;;;;3.10;2.90;;;;;;;;;;5049063;28;20194;-81
2023/05/18 01:33:50;;;;;;;3.53;3.00;;;;;;;;;;5048779;28;20205;-81
2023/05/18 01:36:17;;;;;;;3.00;2.67;;;;;;;;;;5039598;28;20269;-81
2023/05/18 01:38:45;;;;;;;2.67;2.47;;;;;;;;;;5031417;28;20626;-81
2023/05/18 01:41:16;;;;;;;3.17;2.53;;;;;;;;;;5049035;28;20276;-81
2023/05/18 01:43:52;;;;;;;2.60;2.40;;;;;;;;;;5049027;28;20253;-81
2023/05/18 01:46:28;;;;;;;2.90;2.50;;;;;;;;;;5047324;28;20228;-81
2023/05/18 01:49:07;;;;;;;2.70;2.40;;;;;;;;;;5048417;28;20711;-81
2023/05/18 01:51:36;;;;;;;3.50;2.63;;;;;;;;;;5038599;28;20199;-81
2023/05/18 01:54:06;;;;;;;3.10;2.90;;;;;;;;;;5042397;28;20211;-80
2023/05/18 01:56:34;;;;;;;3.07;2.70;;;;;;;;;;5040078;28;20206;-81
2023/05/18 01:59:03;;;;;;;3.80;1.83;;;;;;;;;;5048233;28;20205;-80
2023/05/18 02:01:30;;;;;;;42.50;17.73;;;;;;;;;;5048482;28;20207;-81
2023/05/18 02:03:57;;;;;;;2.33;2.13;;;;;;;;;;5042453;28;20198;-81
2023/05/18 02:06:23;;;;;;;3.30;2.70;;;;;;;;;;5028237;28;20711;-81
2023/05/18 02:08:51;;;;;;;2.33;1.90;;;;;;;;;;5047909;28;20205;-81
2023/05/18 02:11:18;;;;;;;6.97;2.27;;;;;;;;;;5048237;28;20206;-81
2023/05/18 02:13:45;;;;;;;2.67;2.47;;;;;;;;;;5031150;28;20202;-81
2023/05/18 02:16:13;;;;;;;1.93;1.80;;;;;;;;;;5048103;28;20201;-81
2023/05/18 02:18:40;;;;;;;3.53;3.23;;;;;;;;;;5047958;28;20206;-81
2023/05/18 02:21:08;;;;;;;5.30;2.97;;;;;;;;;;5047162;28;20240;-81
2023/05/18 02:23:35;;;;;;;2.87;2.67;;;;;;;;;;5048592;28;20672;-80
2023/05/18 02:26:02;;;;;;;4.73;3.23;;;;;;;;;;5048061;28;20213;-80
2023/05/18 02:28:29;;;;;;;3.27;3.00;;;;;;;;;;5047784;27;20210;-80
2023/05/18 02:31:05;;;;;;;3.30;3.10;;;;;;;;;;5033432;28;20596;-80
2023/05/18 02:33:38;;;;;;;140.60;10.33;;;;;;;;;;5048141;28;20296;-80
2023/05/18 02:36:07;;;;;;;7.23;3.60;;;;;;;;;;5034862;28;20257;-80
2023/05/18 02:38:37;;;;;;;6.63;3.50;;;;;;;;;;5048050;28;20210;-80
2023/05/18 02:41:04;;;;;;;4.07;3.67;;;;;;;;;;5041566;28;20232;-80
2023/05/18 02:43:31;;;;;;;3.83;3.40;;;;;;;;;;5023745;28;20203;-80
2023/05/18 02:45:58;;;;;;;5.47;4.37;;;;;;;;;;5034291;28;20683;-80
2023/05/18 02:48:25;;;;;;;7.97;4.47;;;;;;;;;;5046858;28;20199;-80
2023/05/18 02:50:53;;;;;;;4.77;3.83;;;;;;;;;;5029918;28;20199;-80
2023/05/18 02:53:21;;;;;;;5.27;4.47;;;;;;;;;;5040356;28;20707;-80
2023/05/18 02:55:48;;;;;;;3.77;3.47;;;;;;;;;;5046884;28;20202;-80
2023/05/18 02:58:15;;;;;;;4.37;3.97;;;;;;;;;;5029203;28;20650;-80
2023/05/18 03:00:42;;;;;;;5.10;4.40;;;;;;;;;;5029608;28;20233;-80
2023/05/18 03:03:14;;;;;;;4.20;3.80;;;;;;;;;;5047933;28;20576;-81
2023/05/18 03:05:42;;;;;;;7.30;4.23;;;;;;;;;;5046923;28;20222;-80
2023/05/18 03:08:10;;;;;;;4.33;4.03;;;;;;;;;;5047400;28;20894;-83
2023/05/18 03:10:37;;;;;;;7.07;3.73;;;;;;;;;;5034383;28;20206;-80
2023/05/18 03:13:04;;;;;;;4.53;4.10;;;;;;;;;;5047414;28;20205;-80
2023/05/18 03:15:31;;;;;;;4.00;3.67;;;;;;;;;;5046569;28;20198;-80
2023/05/18 03:17:58;;;;;;;4.47;4.10;;;;;;;;;;5047560;28;20214;-80
2023/05/18 03:20:26;;;;;;;5.97;4.20;;;;;;;;;;5021009;28;20308;-80
2023/05/18 03:22:53;;;;;;;4.40;4.00;;;;;;;;;;5047830;28;20668;-80
2023/05/18 03:25:24;;;;;;;4.03;3.67;;;;;;;;;;5047528;28;20229;-80
2023/05/18 03:27:51;;;;;;;8.80;4.20;;;;;;;;;;5046773;28;20219;-79
2023/05/18 03:30:18;;;;;;;4.77;4.20;;;;;;;;;;5047602;28;20202;-79
2023/05/18 03:32:46;;;;;;;5.00;3.93;;;;;;;;;;5045036;28;20262;-83
2023/05/18 03:35:13;;;;;;;6.83;4.17;;;;;;;;;;5033048;28;20194;-83
2023/05/18 03:37:40;;;;;;;4.60;4.20;;;;;;;;;;5046026;28;20689;-82
2023/05/18 03:40:12;;;;;;;4.20;3.80;;;;;;;;;;5021098;28;20599;-84
2023/05/18 03:42:43;;;;;;;3.90;3.60;;;;;;;;;;5034611;28;20206;-86
2023/05/18 03:45:10;;;;;;;50.83;24.67;;;;;;;;;;5047523;28;20198;-84
2023/05/18 03:47:38;;;;;;;40.23;23.43;;;;;;;;;;5047273;28;20241;-84
2023/05/18 03:50:06;;;;;;;73.07;49.83;;;;;;;;;;5036411;28;20210;-84
2023/05/18 03:52:33;;;;;;;20.87;17.03;;;;;;;;;;5032622;28;20227;-84
2023/05/18 03:55:00;;;;;;;19.77;15.73;;;;;;;;;;5047658;28;20241;-85
2023/05/18 03:57:28;;;;;;;63.93;46.27;;;;;;;;;;5028727;28;20214;-84
2023/05/18 03:59:57;;;;;;;78.83;55.30;;;;;;;;;;5029993;28;20707;-83
2023/05/18 04:02:25;;;;;;;39.77;27.37;;;;;;;;;;5050829;28;20194;-83
2023/05/18 04:04:52;;;;;;;41.17;29.87;;;;;;;;;;5037437;28;20230;-84
2023/05/18 04:07:23;;;;;;;28.80;21.40;;;;;;;;;;5050683;28;20214;-84
2023/05/18 04:09:50;;;;;;;17.10;12.37;;;;;;;;;;5023962;28;20238;-84
2023/05/18 04:12:17;;;;;;;14.10;11.03;;;;;;;;;;5028324;28;20207;-83
2023/05/18 04:14:48;;;;;;;7.77;6.97;;;;;;;;;;5029303;28;20213;-83
2023/05/18 04:17:20;;;;;;;7.93;4.90;;;;;;;;;;5033682;28;20657;-83
2023/05/18 04:19:48;;;;;;;6.43;5.17;;;;;;;;;;5030766;28;20690;-83
2023/05/18 04:22:15;;;;;;;7.47;4.50;;;;;;;;;;5029411;28;20211;-83
2023/05/18 04:24:44;;;;;;;6.37;4.80;;;;;;;;;;5042138;28;20199;-84
2023/05/18 04:27:12;;;;;;;7.80;4.67;;;;;;;;;;5030759;28;20282;-83
2023/05/18 04:29:39;;;;;;;5.00;4.60;;;;;;;;;;5040015;28;20692;-84
2023/05/18 04:32:07;;;;;;;23.53;17.67;;;;;;;;;;5046860;28;20286;-83
2023/05/18 04:34:36;;;;;;;23.73;19.17;;;;;;;;;;5030723;28;20206;-84
2023/05/18 04:37:04;;;;;;;13.57;11.90;;;;;;;;;;5030236;28;20248;-84
2023/05/18 04:39:33;;;;;;;9.83;8.27;;;;;;;;;;5041228;28;20290;-84
2023/05/18 04:42:00;;;;;;;6.47;5.87;;;;;;;;;;5032137;28;20226;-83
2023/05/18 04:44:27;;;;;;;8.13;6.87;;;;;;;;;;5035891;28;20202;-83
2023/05/18 04:46:55;;;;;;;6.97;6.47;;;;;;;;;;5037787;28;20238;-82
2023/05/18 04:49:21;;;;;;;5.43;4.93;;;;;;;;;;5029809;28;20230;-83
2023/05/18 04:51:54;;;;;;;5.67;4.93;;;;;;;;;;5029874;28;20209;-83
2023/05/18 04:54:22;;;;;;;5.13;4.73;;;;;;;;;;5036117;28;20206;-84
2023/05/18 04:56:49;;;;;;;5.50;4.57;;;;;;;;;;5049900;28;20211;-83
2023/05/18 04:59:16;;;;;;;4.83;4.43;;;;;;;;;;5049922;28;20237;-84
2023/05/18 05:01:45;;;;;;;5.53;5.07;;;;;;;;;;5049339;28;20298;-83
2023/05/18 05:04:13;;;;;;;4.77;3.93;;;;;;;;;;5037709;28;20295;-83
2023/05/18 05:06:42;;;;;;;5.93;4.40;;;;;;;;;;5049534;28;20213;-84
2023/05/18 05:09:12;;;;;;;6.73;4.43;;;;;;;;;;5049480;28;20675;-83
2023/05/18 05:11:39;;;;;;;4.67;4.27;;;;;;;;;;5048838;28;20204;-83
2023/05/18 05:14:06;;;;;;;5.43;4.67;;;;;;;;;;5049713;28;20597;-83
2023/05/18 05:16:33;;;;;;;5.63;4.30;;;;;;;;;;5036100;28;20211;-83
2023/05/18 05:19:00;;;;;;;5.67;4.50;;;;;;;;;;5049509;28;20233;-82
2023/05/18 05:21:26;;;;;;;5.43;3.63;;;;;;;;;;5032772;28;20712;-84
2023/05/18 05:23:53;;;;;;;6.83;3.90;;;;;;;;;;5039674;28;20282;-84
2023/05/18 05:26:21;;;;;;;6.10;3.83;;;;;;;;;;5048818;28;20624;-83
2023/05/18 05:28:48;;;;;;;5.77;5.17;;;;;;;;;;5039409;28;20209;-84
2023/05/18 05:31:15;;;;;;;5.27;4.77;;;;;;;;;;5045939;28;20202;-84
2023/05/18 05:33:44;;;;;;;5.37;4.87;;;;;;;;;;5049300;28;20202;-83
2023/05/18 05:36:10;;;;;;;5.63;4.37;;;;;;;;;;5049163;28;20212;-83
2023/05/18 05:38:37;;;;;;;7.50;5.20;;;;;;;;;;5038690;28;20213;-83
2023/05/18 05:41:06;;;;;;;7.43;6.83;;;;;;;;;;5041965;28;20232;-83
2023/05/18 05:43:35;;;;;;;15.20;8.67;;;;;;;;;;5040645;28;20214;-83
2023/05/18 05:46:01;;;;;;;14.33;12.83;;;;;;;;;;5048902;28;20233;-83
2023/05/18 05:48:28;;;;;;;8.20;6.97;;;;;;;;;;5048707;28;20213;-83
2023/05/18 05:50:55;;;;;;;11.77;7.23;;;;;;;;;;5048281;28;20586;-83
2023/05/18 05:53:22;;;;;;;12.83;8.07;;;;;;;;;;5048777;28;20224;-83
2023/05/18 05:55:49;;;;;;;12.23;9.17;;;;;;;;;;5048724;28;20202;-83
2023/05/18 05:58:15;;;;;;;8.07;6.97;;;;;;;;;;5037434;28;20229;-83
2023/05/18 06:00:45;;;;;;;6.40;5.70;;;;;;;;;;5046772;28;20225;-83
2023/05/18 06:03:12;;;;;;;7.40;6.70;;;;;;;;;;5048519;28;20211;-83
2023/05/18 06:05:39;;;;;;;7.83;5.20;;;;;;;;;;5029399;28;20221;-83
2023/05/18 06:08:06;;;;;;;5.03;4.20;;;;;;;;;;5041507;28;20205;-83
2023/05/18 06:10:32;;;;;;;4.70;4.23;;;;;;;;;;5042252;28;20210;-83
2023/05/18 06:12:59;;;;;;;5.00;4.50;;;;;;;;;;5041611;28;20206;-83
2023/05/18 06:15:26;;;;;;;7.53;4.40;;;;;;;;;;5042004;28;20207;-83
2023/05/18 06:17:54;;;;;;;5.07;4.63;;;;;;;;;;5041492;28;20651;-83
2023/05/18 06:20:21;;;;;;;5.03;4.33;;;;;;;;;;5035104;28;20694;-83
2023/05/18 06:22:48;;;;;;;5.13;4.53;;;;;;;;;;5048473;28;20205;-84
2023/05/18 06:25:15;;;;;;;4.47;4.17;;;;;;;;;;5041674;28;20213;-83
2023/05/18 06:27:43;;;;;;;4.83;3.83;;;;;;;;;;5041420;28;20217;-84
2023/05/18 06:30:11;;;;;;;34.63;24.57;;;;;;;;;;5036302;28;20599;-83
2023/05/18 06:32:37;;;;;;;27.10;20.90;;;;;;;;;;5048050;28;20206;-83
2023/05/18 06:35:07;;;;;;;18.93;15.57;;;;;;;;;;5039983;28;20206;-83
2023/05/18 06:37:34;;;;;;;7.00;6.33;;;;;;;;;;5043827;28;20286;-83
2023/05/18 06:40:00;;;;;;;8.17;6.33;;;;;;;;;;5039342;28;20214;-83
2023/05/18 06:42:27;;;;;;;4.33;3.93;;;;;;;;;;5029813;28;20249;-83
2023/05/18 06:44:54;;;;;;;5.90;3.57;;;;;;;;;;5047837;28;20290;-83
2023/05/18 06:47:21;;;;;;;4.43;3.47;;;;;;;;;;5032487;28;20655;-83
2023/05/18 06:49:48;;;;;;;5.20;3.87;;;;;;;;;;5037340;28;20275;-83
2023/05/18 06:52:16;;;;;;;7.47;4.93;;;;;;;;;;5045354;28;20206;-83
2023/05/18 06:54:43;;;;;;;6.10;4.10;;;;;;;;;;5037904;28;20206;-83
2023/05/18 06:57:09;;;;;;;4.00;3.70;;;;;;;;;;5046549;28;20233;-83
2023/05/18 06:59:36;;;;;;;5.30;4.17;;;;;;;;;;5048288;28;20266;-83
2023/05/18 07:02:03;;;;;;;4.73;4.27;;;;;;;;;;5047475;28;20276;-83
2023/05/18 07:04:30;;;;;;;6.17;4.77;;;;;;;;;;5047801;27;20716;-83
2023/05/18 07:06:57;;;;;;;5.97;5.37;;;;;;;;;;5047906;28;20202;-84
2023/05/18 07:09:25;;;;;;;4.23;3.40;;;;;;;;;;5047676;28;20299;-82
2023/05/18 07:11:52;;;;;;;5.43;4.77;;;;;;;;;;5034305;28;20194;-84
2023/05/18 07:14:19;;;;;;;5.47;4.93;;;;;;;;;;5047955;28;20211;-83
2023/05/18 07:16:46;;;;;;;6.70;4.10;;;;;;;;;;5034374;28;20203;-83
2023/05/18 07:19:13;;;;;;;5.10;4.53;;;;;;;;;;5037004;28;20706;-83
2023/05/18 07:21:40;;;;;;;3.97;3.67;;;;;;;;;;5045170;28;20290;-83
2023/05/18 07:24:07;;;;;;;9.13;3.80;;;;;;;;;;5036598;28;20214;-83
2023/05/18 07:26:35;;;;;;;7.50;4.20;;;;;;;;;;5032203;28;20223;-83
2023/05/18 07:29:02;;;;;;;5.53;3.13;;;;;;;;;;5036387;28;20222;-83
2023/05/18 07:31:28;;;;;;;4.90;3.47;;;;;;;;;;5032388;28;20209;-83
2023/05/18 07:33:55;;;;;;;3.63;3.17;;;;;;;;;;5048455;28;20649;-83
2023/05/18 07:36:22;;;;;;;15.30;10.00;;;;;;;;;;5037121;28;20209;-83
2023/05/18 07:38:53;;;;;;;14.33;6.73;;;;;;;;;;5039106;28;20259;-83
2023/05/18 07:41:21;;;;;;;6.53;4.20;;;;;;;;;;5050087;28;20230;-83
2023/05/18 07:43:49;;;;;;;6.90;3.97;;;;;;;;;;5051187;28;20202;-83
2023/05/18 07:46:17;;;;;;;5.60;4.13;;;;;;;;;;5025034;28;20234;-82
2023/05/18 07:48:44;;;;;;;6.73;3.97;;;;;;;;;;5036939;28;20293;-83
2023/05/18 07:51:11;;;;;;;4.57;3.50;;;;;;;;;;5037483;28;20237;-82
2023/05/18 07:53:39;;;;;;;9.20;6.07;;;;;;;;;;5037168;28;20207;-83
2023/05/18 07:56:07;;;;;;;5.40;4.60;;;;;;;;;;5043369;28;20637;-83
2023/05/18 07:58:34;;;;;;;9.37;5.57;;;;;;;;;;5045333;28;20203;-83
2023/05/18 08:01:02;;;;;;;6.57;5.90;;;;;;;;;;5050544;28;20212;-83
2023/05/18 08:03:29;;;;;;;7.70;6.23;;;;;;;;;;5050029;28;20207;-83
2023/05/18 08:05:56;;;;;;;6.90;6.20;;;;;;;;;;5050516;28;20206;-83
2023/05/18 08:08:23;;;;;;;14.47;7.50;;;;;;;;;;5036679;28;20213;-84
2023/05/18 08:10:51;;;;;;;13.33;5.63;;;;;;;;;;5041691;28;20211;-82
2023/05/18 08:13:18;;;;;;;15.27;13.10;;;;;;;;;;5045656;28;20207;-83
2023/05/18 08:15:45;;;;;;;17.20;12.93;;;;;;;;;;5041744;28;20196;-82
2023/05/18 08:18:13;;;;;;;34.17;24.07;;;;;;;;;;5046327;28;20253;-82
2023/05/18 08:20:40;;;;;;;17.83;9.37;;;;;;;;;;5049880;28;20253;-82
2023/05/18 08:23:06;;;;;;;26.20;14.43;;;;;;;;;;5049547;28;20226;-82
2023/05/18 08:25:33;;;;;;;42.37;20.37;;;;;;;;;;5050090;28;20206;-82
2023/05/18 08:28:00;;;;;;;48.57;23.40;;;;;;;;;;5036727;28;20209;-82
2023/05/18 08:30:27;;;;;;;40.63;20.97;;;;;;;;;;5039709;28;20235;-83
2023/05/18 08:32:54;;;;;;;6.20;4.17;;;;;;;;;;5047590;28;20200;-84
2023/05/18 08:35:22;;;;;;;6.70;3.77;;;;;;;;;;5049728;28;20212;-82
2023/05/18 08:37:50;;;;;;;8.43;4.17;;;;;;;;;;5050361;28;20703;-82
2023/05/18 08:40:17;;;;;;;4.43;3.60;;;;;;;;;;5049995;28;20293;-83
2023/05/18 08:42:48;;;;;;;8.13;4.73;;;;;;;;;;5031450;28;20231;-83
2023/05/18 08:45:22;;;;;;;7.17;5.73;;;;;;;;;;5029406;28;20204;-82
2023/05/18 08:47:50;;;;;;;8.00;3.87;;;;;;;;;;5050203;28;20270;-82
2023/05/18 08:50:18;;;;;;;6.27;4.20;;;;;;;;;;5036427;28;20285;-83
2023/05/18 08:52:49;;;;;;;3.90;3.60;;;;;;;;;;5036880;28;20208;-82
2023/05/18 08:55:17;;;;;;;6.10;4.23;;;;;;;;;;5048164;28;20237;-82
2023/05/18 08:57:48;;;;;;;6.33;3.50;;;;;;;;;;5037848;28;20292;-82
2023/05/18 09:00:16;;;;;;;4.53;4.13;;;;;;;;;;5035892;28;20198;-83
2023/05/18 09:02:43;;;;;;;8.13;5.73;;;;;;;;;;5049518;28;20235;-82
2023/05/18 09:05:12;;;;;;;5.03;3.97;;;;;;;;;;5049197;28;20633;-82
2023/05/18 09:07:40;;;;;;;3.40;3.10;;;;;;;;;;5049415;28;20231;-82
2023/05/18 09:10:10;;;;;;;3.70;3.03;;;;;;;;;;5048483;28;20287;-82
2023/05/18 09:12:38;;;;;;;6.90;4.70;;;;;;;;;;5049533;28;20199;-82
2023/05/18 09:15:06;;;;;;;4.70;4.17;;;;;;;;;;5045216;28;20203;-82
2023/05/18 09:17:32;;;;;;;9.90;7.33;;;;;;;;;;5040739;28;20206;-82
2023/05/18 09:19:59;;;;;;;8.70;6.57;;;;;;;;;;5035847;28;20202;-82
2023/05/18 09:22:26;;;;;;;6.07;4.73;;;;;;;;;;5048868;28;20712;-83
2023/05/18 09:24:54;;;;;;;5.87;4.23;;;;;;;;;;5048987;28;20673;-83
2023/05/18 09:27:22;;;;;;;8.43;5.50;;;;;;;;;;5049147;28;20202;-82
2023/05/18 09:29:54;;;;;;;4.90;3.90;;;;;;;;;;5049061;28;20210;-82
2023/05/18 09:32:21;;;;;;;6.43;5.20;;;;;;;;;;5049328;28;20238;-83
2023/05/18 09:34:48;;;;;;;3.90;3.40;;;;;;;;;;5036451;28;20204;-82
2023/05/18 09:37:20;;;;;;;6.00;4.67;;;;;;;;;;5035720;28;20222;-83
2023/05/18 09:39:58;;;;;;;6.17;5.20;;;;;;;;;;5041423;28;20212;-83
2023/05/18 09:42:35;;;;;;;8.63;5.60;;;;;;;;;;5031826;28;20250;-83
2023/05/18 09:45:01;;;;;;;8.50;5.10;;;;;;;;;;5047995;28;20720;-82
2023/05/18 09:47:28;;;;;;;11.00;7.43;;;;;;;;;;5048823;28;20606;-83
2023/05/18 09:49:56;;;;;;;8.37;5.87;;;;;;;;;;5049182;28;20204;-82
2023/05/18 09:52:23;;;;;;;5.00;3.97;;;;;;;;;;5034958;28;20274;-82
2023/05/18 09:54:58;;;;;;;4.67;4.13;;;;;;;;;;5048762;28;20215;-82
2023/05/18 09:57:25;;;;;;;4.20;3.83;;;;;;;;;;5034810;28;20328;-82
2023/05/18 10:00:09;;;;;;;5.93;3.93;;;;;;;;;;5048315;28;20685;-82
2023/05/18 10:02:38;;;;;;;4.17;3.30;;;;;;;;;;5023598;28;20296;-82
2023/05/18 10:05:06;;;;;;;4.33;3.47;;;;;;;;;;5048697;28;20198;-82
2023/05/18 10:07:34;;;;;;;8.37;3.73;;;;;;;;;;5048489;28;20287;-82
2023/05/18 10:10:05;;;;;;;4.77;3.50;;;;;;;;;;5048135;28;20202;-82
2023/05/18 10:12:31;;;;;;;7.57;4.50;;;;;;;;;;5039443;28;20582;-82
2023/05/18 10:15:00;;;;;;;4.23;3.73;;;;;;;;;;5044445;28;20711;-83
2023/05/18 10:17:27;;;;;;;6.93;5.27;;;;;;;;;;5048926;28;20202;-82
2023/05/18 10:19:55;;;;;;;7.50;5.40;;;;;;;;;;5048691;28;20251;-82
2023/05/18 10:22:23;;;;;;;6.70;5.07;;;;;;;;;;5048486;28;20225;-82
2023/05/18 10:24:51;;;;;;;6.03;4.67;;;;;;;;;;5043971;28;20256;-82
2023/05/18 10:27:21;;;;;;;11.13;5.33;;;;;;;;;;5039540;28;20711;-82
2023/05/18 10:29:51;;;;;;;9.83;6.00;;;;;;;;;;5048344;28;20205;-82
2023/05/18 10:32:20;;;;;;;5.07;4.23;;;;;;;;;;5048223;28;20209;-81
2023/05/18 10:34:47;;;;;;;5.73;3.73;;;;;;;;;;5047932;28;20575;-82
2023/05/18 10:37:14;;;;;;;7.97;4.17;;;;;;;;;;5047935;28;20205;-83
2023/05/18 10:39:44;;;;;;;4.37;3.80;;;;;;;;;;5035623;28;20202;-82
2023/05/18 10:42:11;;;;;;;6.20;4.73;;;;;;;;;;5032882;28;20578;-82
2023/05/18 10:44:40;;;;;;;6.00;3.73;;;;;;;;;;5035071;28;20225;-82
2023/05/18 10:47:10;;;;;;;8.93;6.80;;;;;;;;;;5047461;28;20711;-82
2023/05/18 10:49:38;;;;;;;6.23;5.63;;;;;;;;;;5047758;28;20206;-82
2023/05/18 10:52:06;;;;;;;5.47;3.60;;;;;;;;;;5047445;28;20213;-82
2023/05/18 10:54:33;;;;;;;5.90;4.13;;;;;;;;;;5047805;28;20208;-82
2023/05/18 10:57:01;;;;;;;10.40;4.67;;;;;;;;;;5047868;28;20285;-84
2023/05/18 10:59:28;;;;;;;6.07;4.93;;;;;;;;;;5047540;28;20198;-82
2023/05/18 11:04:42;;;;;;;2.53;2.33;;;;;;;;;;5047858;28;20330;-82
2023/05/18 11:07:13;;;;;;;2.60;2.40;;;;;;;;;;5042086;28;20210;-83
2023/05/18 11:09:45;;;;;;;3.97;2.80;;;;;;;;;;5038959;28;20202;-83
2023/05/18 11:12:14;;;;;;;5.47;2.67;;;;;;;;;;5041240;28;20206;-82
2023/05/18 11:14:48;;;;;;;2.20;2.10;;;;;;;;;;5028236;28;20203;-84
2023/05/18 11:17:20;;;;;;;2.33;2.13;;;;;;;;;;5039451;28;20199;-83
2023/05/18 11:20:14;;;;;;;2.13;2.03;;;;;;;;;;5027954;28;20210;-82
2023/05/18 11:22:45;;;;;;;2.03;1.93;;;;;;;;;;5040795;28;20221;-82
2023/05/18 11:25:39;;;;;;;2.50;2.23;;;;;;;;;;5040872;28;20217;-82
2023/05/18 11:28:07;;;;;;;2.40;2.20;;;;;;;;;;5027718;28;20252;-83
2023/05/18 11:30:48;;;;;;;2.43;2.23;;;;;;;;;;5027450;28;20826;-82
2023/05/18 11:33:18;;;;;;;2.33;2.10;;;;;;;;;;5021453;28;20633;-83
2023/05/18 11:36:13;;;;;;;3.27;2.30;;;;;;;;;;5047232;28;20230;-82
2023/05/18 11:38:52;;;;;;;3.67;2.10;;;;;;;;;;5047486;28;20210;-83
2023/05/18 11:41:29;;;;;;;3.27;2.20;;;;;;;;;;5014383;28;20210;-83
2023/05/18 11:44:06;;;;;;;2.47;2.27;;;;;;;;;;5042099;28;20226;-83
2023/05/18 11:46:33;;;;;;;2.00;1.90;;;;;;;;;;5038487;28;20266;-85
2023/05/18 11:49:03;;;;;;;4.90;2.50;;;;;;;;;;5043104;28;20744;-83
2023/05/18 11:51:32;;;;;;;5.20;4.70;;;;;;;;;;5047630;27;20647;-82
2023/05/18 11:54:00;;;;;;;3.03;2.37;;;;;;;;;;5030090;28;20206;-83
2023/05/18 11:56:27;;;;;;;3.70;2.37;;;;;;;;;;5037850;28;20251;-82
2023/05/18 11:59:12;;;;;;;2.93;2.00;;;;;;;;;;5033680;28;20699;-82
2023/05/18 12:01:38;;;;;;;3.23;2.90;;;;;;;;;;5046861;28;20715;-82
2023/05/18 12:04:06;;;;;;;3.10;2.10;;;;;;;;;;5047122;27;20222;-82
2023/05/18 12:06:36;;;;;;;2.97;2.40;;;;;;;;;;5045795;28;20255;-83
2023/05/18 12:09:04;;;;;;;2.27;2.07;;;;;;;;;;5047175;28;20664;-83
2023/05/18 12:11:31;;;;;;;3.57;1.90;;;;;;;;;;5046099;28;20214;-82
2023/05/18 12:13:58;;;;;;;5.50;3.10;;;;;;;;;;5047122;28;20214;-82
2023/05/18 12:16:25;;;;;;;4.03;3.33;;;;;;;;;;5046242;28;20227;-81
2023/05/18 12:18:52;;;;;;;2.90;2.67;;;;;;;;;;5038982;28;20252;-82
2023/05/18 12:21:22;;;;;;;32.13;22.77;;;;;;;;;;5044691;28;20198;-81
2023/05/18 12:23:57;;;;;;;9.83;8.60;;;;;;;;;;5049482;28;20240;-82
2023/05/18 12:26:27;;;;;;;9.57;7.40;;;;;;;;;;5049981;28;20225;-82
2023/05/18 12:28:54;;;;;;;5.60;5.10;;;;;;;;;;5039656;28;20285;-82
2023/05/18 12:31:21;;;;;;;4.17;3.70;;;;;;;;;;5033853;28;20205;-82
2023/05/18 12:33:49;;;;;;;3.00;2.80;;;;;;;;;;5050312;28;20198;-82
2023/05/18 12:36:19;;;;;;;2.80;2.60;;;;;;;;;;5049904;28;20577;-82
2023/05/18 12:38:50;;;;;;;13.43;8.03;;;;;;;;;;5050006;28;20696;-82
2023/05/18 12:41:25;;;;;;;3.30;2.97;;;;;;;;;;5036389;27;20289;-82
2023/05/18 12:43:53;;;;;;;3.33;3.03;;;;;;;;;;5049490;28;20221;-82
2023/05/18 12:46:22;;;;;;;3.37;2.60;;;;;;;;;;5049451;28;20270;-83
2023/05/18 12:48:56;;;;;;;2.37;1.90;;;;;;;;;;5048546;28;20256;-82
2023/05/18 12:51:23;;;;;;;3.47;2.73;;;;;;;;;;5030155;28;20693;-83
2023/05/18 12:53:51;;;;;;;6.87;5.73;;;;;;;;;;5045572;28;20262;-82
2023/05/18 12:56:19;;;;;;;4.40;3.07;;;;;;;;;;5040032;28;20214;-82
2023/05/18 12:58:57;;;;;;;2.07;1.97;;;;;;;;;;5046474;28;20226;-82
2023/05/18 13:01:25;;;;;;;5.63;3.63;;;;;;;;;;5049493;28;20301;-82
2023/05/18 13:03:57;;;;;;;5.97;3.73;;;;;;;;;;5049102;28;20282;-83
2023/05/18 13:06:24;;;;;;;2.70;2.13;;;;;;;;;;5049710;28;20208;-82
2023/05/18 13:08:55;;;;;;;2.57;1.80;;;;;;;;;;5049529;28;20204;-82
2023/05/18 13:11:25;;;;;;;24.83;18.13;;;;;;;;;;5048915;28;20289;-82
2023/05/18 13:13:59;;;;;;;42.63;30.60;;;;;;;;;;5049583;28;20210;-82
2023/05/18 13:16:26;;;;;;;17.73;12.83;;;;;;;;;;5036074;28;20278;-82
2023/05/18 13:18:56;;;;;;;11.93;10.50;;;;;;;;;;5040188;28;20238;-82
2023/05/18 13:21:23;;;;;;;6.07;5.47;;;;;;;;;;5044614;28;20295;-82
2023/05/18 13:23:52;;;;;;;24.03;21.07;;;;;;;;;;5048485;28;20738;-83
2023/05/18 13:26:21;;;;;;;22.27;19.90;;;;;;;;;;5045820;28;20211;-82
2023/05/18 13:28:50;;;;;;;7.77;6.47;;;;;;;;;;5039449;28;20566;-82
2023/05/18 13:31:17;;;;;;;5.07;3.20;;;;;;;;;;5044442;28;20202;-83
2023/05/18 13:33:44;;;;;;;2.53;2.33;;;;;;;;;;5040077;28;20202;-82
2023/05/18 13:36:11;;;;;;;2.60;2.40;;;;;;;;;;5048456;28;20202;-82
2023/05/18 13:38:40;;;;;;;3.33;3.03;;;;;;;;;;5049288;28;20210;-82
2023/05/18 13:41:07;;;;;;;3.53;3.23;;;;;;;;;;5048880;28;20575;-82
2023/05/18 13:43:35;;;;;;;2.57;2.07;;;;;;;;;;5037109;28;20705;-83
2023/05/18 13:46:02;;;;;;;7.30;6.60;;;;;;;;;;5034637;28;20640;-82
2023/05/18 13:48:30;;;;;;;5.03;3.10;;;;;;;;;;5049440;28;20221;-82
2023/05/18 13:50:57;;;;;;;4.47;4.07;;;;;;;;;;5048787;28;20202;-82
2023/05/18 13:53:23;;;;;;;5.03;3.30;;;;;;;;;;5048785;28;20217;-82
2023/05/18 13:55:50;;;;;;;2.73;2.53;;;;;;;;;;5048511;28;20214;-82
2023/05/18 13:58:18;;;;;;;2.80;2.33;;;;;;;;;;5035852;28;20206;-82
2023/05/18 14:00:46;;;;;;;5.00;4.50;;;;;;;;;;5042183;28;20215;-82
2023/05/18 14:03:14;;;;;;;6.83;4.93;;;;;;;;;;5042127;28;20225;-83
2023/05/18 14:05:44;;;;;;;7.00;5.20;;;;;;;;;;5048367;28;20207;-82
2023/05/18 14:08:10;;;;;;;5.47;4.70;;;;;;;;;;5048128;28;20213;-82
2023/05/18 14:10:37;;;;;;;4.97;3.87;;;;;;;;;;5035462;28;20588;-83
2023/05/18 14:13:04;;;;;;;8.10;5.27;;;;;;;;;;5034797;28;20214;-83
2023/05/18 14:15:31;;;;;;;32.13;17.50;;;;;;;;;;5048531;28;20274;-82
2023/05/18 14:17:59;;;;;;;21.20;13.40;;;;;;;;;;5034588;28;20749;-82
2023/05/18 14:20:26;;;;;;;13.37;6.50;;;;;;;;;;5040845;28;20218;-82
2023/05/18 14:22:53;;;;;;;14.00;10.93;;;;;;;;;;5029378;28;20742;-81
2023/05/18 14:25:19;;;;;;;5.93;4.87;;;;;;;;;;5048384;28;20267;-82
2023/05/18 14:27:46;;;;;;;6.00;4.20;;;;;;;;;;5047833;28;20641;-82
2023/05/18 14:30:13;;;;;;;5.13;4.73;;;;;;;;;;5048150;28;20692;-82
2023/05/18 14:32:42;;;;;;;4.73;3.43;;;;;;;;;;5047452;28;20579;-82
2023/05/18 14:35:10;;;;;;;4.00;3.70;;;;;;;;;;5040160;28;20293;-82
2023/05/18 14:37:37;;;;;;;4.47;4.07;;;;;;;;;;5043304;28;20205;-82
2023/05/18 14:40:05;;;;;;;2.97;2.73;;;;;;;;;;5039519;28;20677;-82
2023/05/18 14:42:32;;;;;;;3.70;2.80;;;;;;;;;;5030102;28;20293;-82
2023/05/18 14:44:58;;;;;;;3.63;3.33;;;;;;;;;;5047552;28;20281;-82
2023/05/18 14:47:25;;;;;;;3.57;3.20;;;;;;;;;;5033846;28;20897;-83
2023/05/18 14:49:52;;;;;;;2.77;2.53;;;;;;;;;;5028339;28;20611;-82
2023/05/18 14:52:20;;;;;;;3.20;2.90;;;;;;;;;;5030373;28;20692;-81